sensor_id;sensor_type;location;lat;lon;timestamp;P1;durP1;ratioP1;P2;durP2;ratioP2
63034;SDS011;59750;53.356;-1.458;2022-08-11T00:00:20;3.65;;;1.80;;
63034;SDS011;59750;53.356;-1.458;2022-08-11T00:03:02;3.47;;;2.35;;
63034;SDS011;59750;53.356;-1.458;2022-08-11T00:05:43;5.30;;;2.50;;
63034;SDS011;59750;53.356;-1.458;2022-08-11T00:10:58;2.35;;;1.75;;
63034;SDS011;59750;53.356;-1.458;2022-08-11T00:13:31;2.13;;;1.83;;
63034;SDS011;59750;53.356;-1.458;2022-08-11T00:15:59;4.47;;;2.50;;
63034;SDS011;59750;53.356;-1.458;2022-08-11T00:18:28;3.35;;;2.10;;
63034;SDS011;59750;53.356;-1.458;2022-08-11T00:21:04;2.28;;;1.98;;
63034;SDS011;59750;53.356;-1.458;2022-08-11T00:23:31;4.95;;;2.35;;
63034;SDS011;59750;53.356;-1.458;2022-08-11T00:25:58;3.58;;;2.53;;
63034;SDS011;59750;53.356;-1.458;2022-08-11T00:28:32;2.85;;;1.85;;
63034;SDS011;59750;53.356;-1.458;2022-08-11T00:31:03;3.80;;;2.30;;
63034;SDS011;59750;53.356;-1.458;2022-08-11T00:33:36;3.35;;;2.58;;
63034;SDS011;59750;53.356;-1.458;2022-08-11T00:36:08;3.33;;;2.08;;
63034;SDS011;59750;53.356;-1.458;2022-08-11T00:38:38;7.18;;;2.47;;
63034;SDS011;59750;53.356;-1.458;2022-08-11T00:44:11;5.03;;;2.33;;
63034;SDS011;59750;53.356;-1.458;2022-08-11T00:50:03;3.15;;;2.85;;
63034;SDS011;59750;53.356;-1.458;2022-08-11T01:10:22;4.38;;;3.28;;
63034;SDS011;59750;53.356;-1.458;2022-08-11T01:52:53;3.40;;;2.30;;
63034;SDS011;59750;53.356;-1.458;2022-08-11T01:55:39;4.47;;;3.17;;
63034;SDS011;59750;53.356;-1.458;2022-08-11T01:58:25;3.67;;;2.97;;
63034;SDS011;59750;53.356;-1.458;2022-08-11T02:03:51;4.07;;;2.25;;
63034;SDS011;59750;53.356;-1.458;2022-08-11T02:06:25;3.17;;;2.20;;
63034;SDS011;59750;53.356;-1.458;2022-08-11T02:09:31;59.22;;;6.55;;
63034;SDS011;59750;53.356;-1.458;2022-08-11T02:15:02;5.97;;;2.58;;
63034;SDS011;59750;53.356;-1.458;2022-08-11T02:17:46;5.90;;;2.00;;
63034;SDS011;59750;53.356;-1.458;2022-08-11T02:20:36;4.07;;;2.40;;
63034;SDS011;59750;53.356;-1.458;2022-08-11T02:37:34;3.28;;;2.08;;
63034;SDS011;59750;53.356;-1.458;2022-08-11T03:07:27;2.23;;;2.00;;
63034;SDS011;59750;53.356;-1.458;2022-08-11T03:12:43;2.70;;;1.80;;
63034;SDS011;59750;53.356;-1.458;2022-08-11T03:21:56;2.53;;;1.70;;
63034;SDS011;59750;53.356;-1.458;2022-08-11T03:30:04;2.38;;;1.58;;
63034;SDS011;59750;53.356;-1.458;2022-08-11T03:32:47;2.03;;;1.60;;
63034;SDS011;59750;53.356;-1.458;2022-08-11T03:35:41;3.13;;;1.45;;
63034;SDS011;59750;53.356;-1.458;2022-08-11T03:38:18;2.55;;;1.90;;
63034;SDS011;59750;53.356;-1.458;2022-08-11T03:40:58;3.05;;;1.80;;
63034;SDS011;59750;53.356;-1.458;2022-08-11T03:44:11;1.80;;;1.70;;
63034;SDS011;59750;53.356;-1.458;2022-08-11T03:49:35;1.95;;;1.70;;
63034;SDS011;59750;53.356;-1.458;2022-08-11T03:55:14;1.90;;;1.55;;
63034;SDS011;59750;53.356;-1.458;2022-08-11T04:00:56;1.73;;;1.60;;
63034;SDS011;59750;53.356;-1.458;2022-08-11T04:34:50;2.03;;;1.42;;
63034;SDS011;59750;53.356;-1.458;2022-08-11T04:43:08;5.53;;;2.47;;
63034;SDS011;59750;53.356;-1.458;2022-08-11T04:48:38;4.13;;;1.73;;
63034;SDS011;59750;53.356;-1.458;2022-08-11T04:54:41;1.98;;;1.63;;
63034;SDS011;59750;53.356;-1.458;2022-08-11T05:12:59;2.13;;;1.42;;
63034;SDS011;59750;53.356;-1.458;2022-08-11T05:18:38;2.63;;;1.98;;
63034;SDS011;59750;53.356;-1.458;2022-08-11T05:21:34;3.47;;;2.45;;
63034;SDS011;59750;53.356;-1.458;2022-08-11T05:24:20;2.65;;;1.90;;
63034;SDS011;59750;53.356;-1.458;2022-08-11T05:27:08;2.70;;;1.88;;
63034;SDS011;59750;53.356;-1.458;2022-08-11T05:29:57;3.67;;;2.03;;
63034;SDS011;59750;53.356;-1.458;2022-08-11T05:32:51;3.15;;;1.85;;
63034;SDS011;59750;53.356;-1.458;2022-08-11T05:35:44;3.08;;;2.28;;
63034;SDS011;59750;53.356;-1.458;2022-08-11T05:38:20;3.55;;;1.92;;
63034;SDS011;59750;53.356;-1.458;2022-08-11T05:41:10;3.95;;;2.22;;
63034;SDS011;59750;53.356;-1.458;2022-08-11T05:43:57;4.63;;;2.85;;
63034;SDS011;59750;53.356;-1.458;2022-08-11T05:46:43;3.35;;;1.92;;
63034;SDS011;59750;53.356;-1.458;2022-08-11T05:49:30;3.72;;;2.08;;
63034;SDS011;59750;53.356;-1.458;2022-08-11T05:52:16;2.53;;;2.30;;
63034;SDS011;59750;53.356;-1.458;2022-08-11T05:55:06;3.00;;;1.92;;
63034;SDS011;59750;53.356;-1.458;2022-08-11T05:57:55;2.70;;;2.00;;
63034;SDS011;59750;53.356;-1.458;2022-08-11T06:00:24;3.45;;;1.73;;
63034;SDS011;59750;53.356;-1.458;2022-08-11T06:02:53;3.53;;;2.38;;
63034;SDS011;59750;53.356;-1.458;2022-08-11T06:05:23;2.95;;;2.25;;
63034;SDS011;59750;53.356;-1.458;2022-08-11T06:07:57;4.47;;;2.20;;
63034;SDS011;59750;53.356;-1.458;2022-08-11T06:10:38;2.20;;;1.92;;
63034;SDS011;59750;53.356;-1.458;2022-08-11T06:13:07;3.22;;;1.77;;
63034;SDS011;59750;53.356;-1.458;2022-08-11T06:18:21;3.20;;;2.20;;
63034;SDS011;59750;53.356;-1.458;2022-08-11T06:20:51;2.55;;;2.15;;
63034;SDS011;59750;53.356;-1.458;2022-08-11T06:23:20;4.15;;;2.20;;
63034;SDS011;59750;53.356;-1.458;2022-08-11T06:25:49;4.03;;;2.20;;
63034;SDS011;59750;53.356;-1.458;2022-08-11T06:28:16;3.95;;;2.45;;
63034;SDS011;59750;53.356;-1.458;2022-08-11T06:30:45;3.15;;;2.35;;
63034;SDS011;59750;53.356;-1.458;2022-08-11T06:33:14;4.47;;;2.40;;
63034;SDS011;59750;53.356;-1.458;2022-08-11T06:41:52;4.00;;;2.83;;
63034;SDS011;59750;53.356;-1.458;2022-08-11T06:44:23;3.78;;;2.55;;
63034;SDS011;59750;53.356;-1.458;2022-08-11T06:47:03;2.97;;;2.42;;
63034;SDS011;59750;53.356;-1.458;2022-08-11T06:49:34;5.82;;;2.60;;
63034;SDS011;59750;53.356;-1.458;2022-08-11T06:52:27;4.70;;;2.42;;
63034;SDS011;59750;53.356;-1.458;2022-08-11T06:54:59;4.63;;;2.75;;
63034;SDS011;59750;53.356;-1.458;2022-08-11T06:57:35;3.53;;;2.63;;
63034;SDS011;59750;53.356;-1.458;2022-08-11T07:00:22;4.30;;;2.17;;
63034;SDS011;59750;53.356;-1.458;2022-08-11T07:02:57;3.40;;;2.40;;
63034;SDS011;59750;53.356;-1.458;2022-08-11T07:14:30;3.25;;;2.78;;
63034;SDS011;59750;53.356;-1.458;2022-08-11T07:17:20;4.15;;;2.08;;
63034;SDS011;59750;53.356;-1.458;2022-08-11T07:19:52;3.38;;;2.97;;
63034;SDS011;59750;53.356;-1.458;2022-08-11T07:22:40;4.03;;;2.35;;
63034;SDS011;59750;53.356;-1.458;2022-08-11T07:25:26;3.08;;;2.38;;
63034;SDS011;59750;53.356;-1.458;2022-08-11T07:28:16;2.78;;;2.55;;
63034;SDS011;59750;53.356;-1.458;2022-08-11T07:31:06;5.57;;;3.08;;
63034;SDS011;59750;53.356;-1.458;2022-08-11T07:33:41;5.57;;;2.97;;
63034;SDS011;59750;53.356;-1.458;2022-08-11T07:36:11;5.30;;;3.17;;
63034;SDS011;59750;53.356;-1.458;2022-08-11T07:38:40;3.75;;;3.08;;
63034;SDS011;59750;53.356;-1.458;2022-08-11T07:41:09;2.90;;;2.70;;
63034;SDS011;59750;53.356;-1.458;2022-08-11T07:43:39;4.97;;;2.80;;
63034;SDS011;59750;53.356;-1.458;2022-08-11T07:46:07;3.67;;;2.90;;
63034;SDS011;59750;53.356;-1.458;2022-08-11T07:48:54;2.95;;;2.65;;
63034;SDS011;59750;53.356;-1.458;2022-08-11T07:51:41;6.93;;;3.40;;
63034;SDS011;59750;53.356;-1.458;2022-08-11T07:54:26;5.30;;;3.42;;
63034;SDS011;59750;53.356;-1.458;2022-08-11T07:56:55;4.65;;;3.25;;
63034;SDS011;59750;53.356;-1.458;2022-08-11T07:59:23;4.35;;;3.47;;
63034;SDS011;59750;53.356;-1.458;2022-08-11T08:02:11;4.60;;;3.50;;
63034;SDS011;59750;53.356;-1.458;2022-08-11T08:04:59;6.57;;;3.60;;
63034;SDS011;59750;53.356;-1.458;2022-08-11T08:07:44;3.97;;;3.05;;
63034;SDS011;59750;53.356;-1.458;2022-08-11T08:10:30;4.25;;;2.70;;
63034;SDS011;59750;53.356;-1.458;2022-08-11T08:13:15;4.18;;;2.80;;
63034;SDS011;59750;53.356;-1.458;2022-08-11T08:16:00;4.90;;;2.63;;
63034;SDS011;59750;53.356;-1.458;2022-08-11T08:18:45;6.13;;;2.45;;
63034;SDS011;59750;53.356;-1.458;2022-08-11T08:21:11;3.38;;;2.60;;
63034;SDS011;59750;53.356;-1.458;2022-08-11T08:23:42;5.78;;;2.80;;
63034;SDS011;59750;53.356;-1.458;2022-08-11T08:26:11;5.20;;;2.63;;
63034;SDS011;59750;53.356;-1.458;2022-08-11T08:29:05;3.63;;;2.50;;
63034;SDS011;59750;53.356;-1.458;2022-08-11T08:31:51;5.03;;;3.17;;
63034;SDS011;59750;53.356;-1.458;2022-08-11T08:34:21;4.57;;;2.65;;
63034;SDS011;59750;53.356;-1.458;2022-08-11T08:36:49;3.72;;;2.55;;
63034;SDS011;59750;53.356;-1.458;2022-08-11T08:39:22;5.60;;;2.58;;
63034;SDS011;59750;53.356;-1.458;2022-08-11T08:41:50;3.47;;;2.50;;
63034;SDS011;59750;53.356;-1.458;2022-08-11T08:44:20;3.83;;;2.38;;
63034;SDS011;59750;53.356;-1.458;2022-08-11T08:46:49;4.03;;;2.40;;
63034;SDS011;59750;53.356;-1.458;2022-08-11T08:49:22;3.40;;;2.22;;
63034;SDS011;59750;53.356;-1.458;2022-08-11T08:51:54;5.63;;;2.40;;
63034;SDS011;59750;53.356;-1.458;2022-08-11T08:54:27;3.47;;;2.10;;
63034;SDS011;59750;53.356;-1.458;2022-08-11T08:57:00;4.43;;;2.08;;
63034;SDS011;59750;53.356;-1.458;2022-08-11T08:59:30;3.42;;;2.50;;
63034;SDS011;59750;53.356;-1.458;2022-08-11T09:02:01;3.83;;;2.92;;
63034;SDS011;59750;53.356;-1.458;2022-08-11T09:04:30;4.60;;;2.70;;
63034;SDS011;59750;53.356;-1.458;2022-08-11T09:06:58;4.75;;;3.25;;
63034;SDS011;59750;53.356;-1.458;2022-08-11T09:09:44;5.55;;;2.38;;
63034;SDS011;59750;53.356;-1.458;2022-08-11T09:12:13;2.65;;;2.38;;
63034;SDS011;59750;53.356;-1.458;2022-08-11T09:14:42;5.22;;;2.80;;
63034;SDS011;59750;53.356;-1.458;2022-08-11T09:17:35;5.05;;;2.85;;
63034;SDS011;59750;53.356;-1.458;2022-08-11T09:20:16;3.58;;;2.28;;
63034;SDS011;59750;53.356;-1.458;2022-08-11T09:22:45;4.20;;;2.40;;
63034;SDS011;59750;53.356;-1.458;2022-08-11T09:25:32;3.70;;;2.05;;
63034;SDS011;59750;53.356;-1.458;2022-08-11T09:28:19;3.22;;;2.15;;
63034;SDS011;59750;53.356;-1.458;2022-08-11T09:30:48;3.05;;;2.10;;
63034;SDS011;59750;53.356;-1.458;2022-08-11T09:33:21;5.03;;;2.28;;
63034;SDS011;59750;53.356;-1.458;2022-08-11T09:35:49;6.75;;;2.00;;
63034;SDS011;59750;53.356;-1.458;2022-08-11T09:38:17;5.00;;;1.70;;
63034;SDS011;59750;53.356;-1.458;2022-08-11T09:41:04;5.80;;;2.15;;
63034;SDS011;59750;53.356;-1.458;2022-08-11T09:43:35;4.53;;;2.15;;
63034;SDS011;59750;53.356;-1.458;2022-08-11T09:46:25;5.80;;;2.10;;
63034;SDS011;59750;53.356;-1.458;2022-08-11T09:48:55;4.97;;;2.25;;
63034;SDS011;59750;53.356;-1.458;2022-08-11T09:51:24;2.13;;;1.60;;
63034;SDS011;59750;53.356;-1.458;2022-08-11T09:53:56;3.70;;;2.10;;
63034;SDS011;59750;53.356;-1.458;2022-08-11T09:56:25;4.65;;;1.90;;
63034;SDS011;59750;53.356;-1.458;2022-08-11T09:59:13;2.47;;;1.65;;
63034;SDS011;59750;53.356;-1.458;2022-08-11T10:01:44;3.22;;;1.95;;
63034;SDS011;59750;53.356;-1.458;2022-08-11T10:04:16;3.63;;;1.67;;
63034;SDS011;59750;53.356;-1.458;2022-08-11T10:06:48;1.65;;;1.48;;
63034;SDS011;59750;53.356;-1.458;2022-08-11T10:12:26;5.57;;;1.80;;
63034;SDS011;59750;53.356;-1.458;2022-08-11T10:15:00;2.17;;;1.70;;
63034;SDS011;59750;53.356;-1.458;2022-08-11T10:17:47;2.85;;;1.77;;
63034;SDS011;59750;53.356;-1.458;2022-08-11T10:20:36;4.68;;;1.80;;
63034;SDS011;59750;53.356;-1.458;2022-08-11T10:23:07;3.78;;;1.88;;
63034;SDS011;59750;53.356;-1.458;2022-08-11T10:25:57;3.17;;;1.70;;
63034;SDS011;59750;53.356;-1.458;2022-08-11T10:28:43;3.22;;;1.70;;
63034;SDS011;59750;53.356;-1.458;2022-08-11T10:31:10;6.93;;;1.65;;
63034;SDS011;59750;53.356;-1.458;2022-08-11T10:33:55;5.45;;;2.10;;
63034;SDS011;59750;53.356;-1.458;2022-08-11T10:36:26;2.17;;;1.58;;
63034;SDS011;59750;53.356;-1.458;2022-08-11T10:38:54;2.80;;;1.73;;
63034;SDS011;59750;53.356;-1.458;2022-08-11T10:41:23;2.97;;;1.70;;
63034;SDS011;59750;53.356;-1.458;2022-08-11T10:44:09;4.72;;;2.10;;
63034;SDS011;59750;53.356;-1.458;2022-08-11T10:46:36;2.53;;;1.70;;
63034;SDS011;59750;53.356;-1.458;2022-08-11T10:49:21;4.90;;;2.17;;
63034;SDS011;59750;53.356;-1.458;2022-08-11T10:51:50;3.45;;;1.88;;
63034;SDS011;59750;53.356;-1.458;2022-08-11T10:54:36;3.47;;;1.70;;
63034;SDS011;59750;53.356;-1.458;2022-08-11T10:57:24;3.70;;;2.03;;
63034;SDS011;59750;53.356;-1.458;2022-08-11T11:00:10;3.70;;;1.88;;
63034;SDS011;59750;53.356;-1.458;2022-08-11T11:02:43;3.67;;;2.22;;
63034;SDS011;59750;53.356;-1.458;2022-08-11T11:05:12;3.22;;;1.80;;
63034;SDS011;59750;53.356;-1.458;2022-08-11T11:07:49;4.40;;;2.05;;
63034;SDS011;59750;53.356;-1.458;2022-08-11T11:10:56;2.05;;;1.83;;
63034;SDS011;59750;53.356;-1.458;2022-08-11T11:13:24;3.63;;;1.58;;
63034;SDS011;59750;53.356;-1.458;2022-08-11T11:16:10;2.58;;;1.70;;
63034;SDS011;59750;53.356;-1.458;2022-08-11T11:18:56;3.00;;;2.30;;
63034;SDS011;59750;53.356;-1.458;2022-08-11T11:21:29;5.75;;;1.95;;
63034;SDS011;59750;53.356;-1.458;2022-08-11T11:37:52;2.42;;;1.95;;
63034;SDS011;59750;53.356;-1.458;2022-08-11T11:40:22;4.88;;;2.10;;
63034;SDS011;59750;53.356;-1.458;2022-08-11T11:42:49;2.42;;;1.85;;
63034;SDS011;59750;53.356;-1.458;2022-08-11T11:45:19;4.18;;;2.08;;
63034;SDS011;59750;53.356;-1.458;2022-08-11T11:47:49;3.95;;;2.08;;
63034;SDS011;59750;53.356;-1.458;2022-08-11T11:50:27;4.25;;;1.70;;
63034;SDS011;59750;53.356;-1.458;2022-08-11T11:53:00;4.35;;;2.28;;
63034;SDS011;59750;53.356;-1.458;2022-08-11T11:55:29;2.47;;;1.70;;
63034;SDS011;59750;53.356;-1.458;2022-08-11T11:57:57;3.70;;;2.05;;
63034;SDS011;59750;53.356;-1.458;2022-08-11T12:00:44;4.93;;;2.00;;
63034;SDS011;59750;53.356;-1.458;2022-08-11T12:03:31;4.15;;;2.00;;
63034;SDS011;59750;53.356;-1.458;2022-08-11T12:05:58;4.68;;;1.83;;
63034;SDS011;59750;53.356;-1.458;2022-08-11T12:08:27;2.58;;;1.67;;
63034;SDS011;59750;53.356;-1.458;2022-08-11T12:10:55;2.58;;;1.83;;
63034;SDS011;59750;53.356;-1.458;2022-08-11T12:13:44;4.45;;;1.90;;
63034;SDS011;59750;53.356;-1.458;2022-08-11T12:16:12;7.13;;;2.30;;
63034;SDS011;59750;53.356;-1.458;2022-08-11T12:18:41;2.35;;;1.75;;
63034;SDS011;59750;53.356;-1.458;2022-08-11T12:21:10;5.10;;;1.85;;
63034;SDS011;59750;53.356;-1.458;2022-08-11T12:23:40;5.38;;;1.60;;
63034;SDS011;59750;53.356;-1.458;2022-08-11T12:26:29;4.15;;;1.70;;
63034;SDS011;59750;53.356;-1.458;2022-08-11T12:29:15;2.13;;;1.70;;
63034;SDS011;59750;53.356;-1.458;2022-08-11T12:31:44;3.50;;;1.95;;
63034;SDS011;59750;53.356;-1.458;2022-08-11T12:34:14;2.70;;;1.80;;
63034;SDS011;59750;53.356;-1.458;2022-08-11T12:36:42;4.28;;;1.83;;
63034;SDS011;59750;53.356;-1.458;2022-08-11T12:39:16;3.10;;;1.90;;
63034;SDS011;59750;53.356;-1.458;2022-08-11T12:42:06;5.93;;;2.20;;
63034;SDS011;59750;53.356;-1.458;2022-08-11T12:44:54;5.30;;;2.10;;
63034;SDS011;59750;53.356;-1.458;2022-08-11T12:47:43;3.60;;;1.92;;
63034;SDS011;59750;53.356;-1.458;2022-08-11T12:50:33;3.65;;;1.90;;
63034;SDS011;59750;53.356;-1.458;2022-08-11T12:53:23;2.78;;;1.80;;
63034;SDS011;59750;53.356;-1.458;2022-08-11T12:58:40;5.10;;;1.85;;
63034;SDS011;59750;53.356;-1.458;2022-08-11T13:01:09;3.85;;;1.88;;
63034;SDS011;59750;53.356;-1.458;2022-08-11T13:03:55;3.90;;;1.98;;
63034;SDS011;59750;53.356;-1.458;2022-08-11T13:06:40;2.95;;;1.90;;
63034;SDS011;59750;53.356;-1.458;2022-08-11T13:09:07;5.00;;;2.20;;
63034;SDS011;59750;53.356;-1.458;2022-08-11T13:11:36;3.50;;;2.00;;
63034;SDS011;59750;53.356;-1.458;2022-08-11T13:14:25;3.35;;;2.00;;
63034;SDS011;59750;53.356;-1.458;2022-08-11T13:16:53;3.33;;;1.88;;
63034;SDS011;59750;53.356;-1.458;2022-08-11T13:19:40;2.08;;;1.75;;
63034;SDS011;59750;53.356;-1.458;2022-08-11T13:22:08;5.95;;;2.38;;
63034;SDS011;59750;53.356;-1.458;2022-08-11T13:24:36;4.70;;;2.00;;
63034;SDS011;59750;53.356;-1.458;2022-08-11T13:27:03;4.50;;;2.03;;
63034;SDS011;59750;53.356;-1.458;2022-08-11T13:29:30;2.90;;;2.08;;
63034;SDS011;59750;53.356;-1.458;2022-08-11T13:31:56;4.15;;;2.10;;
63034;SDS011;59750;53.356;-1.458;2022-08-11T13:34:26;3.30;;;1.63;;
63034;SDS011;59750;53.356;-1.458;2022-08-11T13:39:27;4.03;;;2.35;;
63034;SDS011;59750;53.356;-1.458;2022-08-11T13:41:57;2.35;;;1.80;;
63034;SDS011;59750;53.356;-1.458;2022-08-11T13:44:26;3.00;;;1.85;;
63034;SDS011;59750;53.356;-1.458;2022-08-11T13:46:56;2.85;;;1.77;;
63034;SDS011;59750;53.356;-1.458;2022-08-11T13:49:25;2.60;;;1.90;;
63034;SDS011;59750;53.356;-1.458;2022-08-11T13:51:53;4.90;;;2.17;;
63034;SDS011;59750;53.356;-1.458;2022-08-11T13:54:22;2.53;;;2.15;;
63034;SDS011;59750;53.356;-1.458;2022-08-11T13:56:52;3.03;;;2.22;;
63034;SDS011;59750;53.356;-1.458;2022-08-11T13:59:20;4.72;;;3.15;;
63034;SDS011;59750;53.356;-1.458;2022-08-11T14:01:49;2.95;;;2.65;;
63034;SDS011;59750;53.356;-1.458;2022-08-11T14:04:22;4.25;;;3.10;;
63034;SDS011;59750;53.356;-1.458;2022-08-11T14:06:55;2.75;;;2.40;;
63034;SDS011;59750;53.356;-1.458;2022-08-11T14:09:26;7.90;;;3.28;;
63034;SDS011;59750;53.356;-1.458;2022-08-11T14:11:59;3.15;;;2.53;;
63034;SDS011;59750;53.356;-1.458;2022-08-11T14:14:46;5.50;;;3.30;;
63034;SDS011;59750;53.356;-1.458;2022-08-11T14:17:15;3.63;;;3.08;;
63034;SDS011;59750;53.356;-1.458;2022-08-11T14:19:44;6.28;;;2.83;;
63034;SDS011;59750;53.356;-1.458;2022-08-11T14:22:15;4.05;;;2.85;;
63034;SDS011;59750;53.356;-1.458;2022-08-11T14:24:46;4.40;;;3.00;;
63034;SDS011;59750;53.356;-1.458;2022-08-11T14:27:14;5.82;;;2.92;;
63034;SDS011;59750;53.356;-1.458;2022-08-11T14:29:43;3.25;;;2.95;;
63034;SDS011;59750;53.356;-1.458;2022-08-11T14:32:12;3.03;;;2.78;;
63034;SDS011;59750;53.356;-1.458;2022-08-11T14:34:40;5.15;;;3.05;;
63034;SDS011;59750;53.356;-1.458;2022-08-11T14:37:09;2.78;;;2.47;;
63034;SDS011;59750;53.356;-1.458;2022-08-11T14:39:42;3.67;;;2.30;;
63034;SDS011;59750;53.356;-1.458;2022-08-11T14:42:11;3.03;;;2.05;;
63034;SDS011;59750;53.356;-1.458;2022-08-11T14:45:01;4.32;;;2.45;;
63034;SDS011;59750;53.356;-1.458;2022-08-11T14:47:52;4.05;;;2.60;;
63034;SDS011;59750;53.356;-1.458;2022-08-11T14:50:22;4.10;;;2.47;;
63034;SDS011;59750;53.356;-1.458;2022-08-11T14:52:54;4.15;;;2.45;;
63034;SDS011;59750;53.356;-1.458;2022-08-11T14:55:23;3.55;;;2.25;;
63034;SDS011;59750;53.356;-1.458;2022-08-11T14:58:10;3.20;;;1.80;;
63034;SDS011;59750;53.356;-1.458;2022-08-11T15:00:40;4.45;;;2.72;;
63034;SDS011;59750;53.356;-1.458;2022-08-11T15:03:10;4.65;;;2.35;;
63034;SDS011;59750;53.356;-1.458;2022-08-11T15:08:09;3.33;;;1.73;;
63034;SDS011;59750;53.356;-1.458;2022-08-11T15:10:39;3.53;;;2.25;;
63034;SDS011;59750;53.356;-1.458;2022-08-11T15:13:05;8.07;;;2.35;;
63034;SDS011;59750;53.356;-1.458;2022-08-11T15:15:33;2.83;;;1.80;;
63034;SDS011;59750;53.356;-1.458;2022-08-11T15:18:18;4.38;;;1.92;;
63034;SDS011;59750;53.356;-1.458;2022-08-11T15:20:49;5.53;;;2.08;;
63034;SDS011;59750;53.356;-1.458;2022-08-11T15:23:34;3.90;;;2.00;;
63034;SDS011;59750;53.356;-1.458;2022-08-11T15:29:17;4.25;;;2.03;;
63034;SDS011;59750;53.356;-1.458;2022-08-11T15:32:07;3.97;;;1.93;;
63034;SDS011;59750;53.356;-1.458;2022-08-11T15:34:56;4.30;;;2.00;;
63034;SDS011;59750;53.356;-1.458;2022-08-11T15:37:43;2.60;;;1.92;;
63034;SDS011;59750;53.356;-1.458;2022-08-11T15:40:12;3.03;;;1.98;;
63034;SDS011;59750;53.356;-1.458;2022-08-11T15:46:07;2.47;;;1.70;;
63034;SDS011;59750;53.356;-1.458;2022-08-11T15:48:43;1.95;;;1.50;;
63034;SDS011;59750;53.356;-1.458;2022-08-11T15:51:15;2.38;;;2.00;;
63034;SDS011;59750;53.356;-1.458;2022-08-11T15:53:49;3.90;;;1.90;;
63034;SDS011;59750;53.356;-1.458;2022-08-11T15:56:18;3.10;;;1.95;;
63034;SDS011;59750;53.356;-1.458;2022-08-11T15:58:48;3.42;;;1.80;;
63034;SDS011;59750;53.356;-1.458;2022-08-11T16:01:35;7.20;;;1.77;;
63034;SDS011;59750;53.356;-1.458;2022-08-11T16:04:24;2.42;;;1.75;;
63034;SDS011;59750;53.356;-1.458;2022-08-11T16:06:56;1.63;;;1.52;;
63034;SDS011;59750;53.356;-1.458;2022-08-11T16:09:29;2.47;;;1.80;;
63034;SDS011;59750;53.356;-1.458;2022-08-11T16:12:03;2.90;;;1.88;;
63034;SDS011;59750;53.356;-1.458;2022-08-11T16:17:21;1.90;;;1.42;;
63034;SDS011;59750;53.356;-1.458;2022-08-11T16:19:52;5.18;;;1.50;;
63034;SDS011;59750;53.356;-1.458;2022-08-11T16:22:23;6.00;;;2.20;;
63034;SDS011;59750;53.356;-1.458;2022-08-11T16:25:02;2.95;;;1.63;;
63034;SDS011;59750;53.356;-1.458;2022-08-11T16:27:34;2.08;;;1.70;;
63034;SDS011;59750;53.356;-1.458;2022-08-11T16:30:07;3.03;;;1.83;;
63034;SDS011;59750;53.356;-1.458;2022-08-11T16:32:35;5.22;;;1.52;;
63034;SDS011;59750;53.356;-1.458;2022-08-11T16:35:06;4.22;;;1.30;;
63034;SDS011;59750;53.356;-1.458;2022-08-11T16:37:54;3.72;;;1.50;;
63034;SDS011;59750;53.356;-1.458;2022-08-11T16:40:40;2.95;;;1.20;;
63034;SDS011;59750;53.356;-1.458;2022-08-11T16:43:11;3.15;;;1.63;;
63034;SDS011;59750;53.356;-1.458;2022-08-11T16:45:58;2.00;;;1.50;;
63034;SDS011;59750;53.356;-1.458;2022-08-11T16:48:49;2.95;;;1.30;;
63034;SDS011;59750;53.356;-1.458;2022-08-11T16:51:18;2.67;;;1.77;;
63034;SDS011;59750;53.356;-1.458;2022-08-11T16:53:46;1.98;;;1.33;;
63034;SDS011;59750;53.356;-1.458;2022-08-11T16:56:15;1.65;;;1.15;;
63034;SDS011;59750;53.356;-1.458;2022-08-11T16:58:46;1.98;;;1.50;;
63034;SDS011;59750;53.356;-1.458;2022-08-11T17:01:35;1.90;;;1.30;;
63034;SDS011;59750;53.356;-1.458;2022-08-11T17:04:15;4.18;;;1.30;;
63034;SDS011;59750;53.356;-1.458;2022-08-11T17:07:19;1.98;;;1.20;;
63034;SDS011;59750;53.356;-1.458;2022-08-11T17:10:08;2.30;;;1.42;;
63034;SDS011;59750;53.356;-1.458;2022-08-11T17:13:00;1.30;;;1.02;;
63034;SDS011;59750;53.356;-1.458;2022-08-11T17:15:36;1.80;;;1.50;;
63034;SDS011;59750;53.356;-1.458;2022-08-11T17:18:25;3.33;;;1.27;;
63034;SDS011;59750;53.356;-1.458;2022-08-11T17:24:26;2.10;;;1.02;;
63034;SDS011;59750;53.356;-1.458;2022-08-11T17:26:56;1.38;;;1.00;;
63034;SDS011;59750;53.356;-1.458;2022-08-11T17:32:12;5.53;;;1.20;;
63034;SDS011;59750;53.356;-1.458;2022-08-11T17:35:03;1.60;;;1.17;;
63034;SDS011;59750;53.356;-1.458;2022-08-11T17:37:52;1.58;;;1.25;;
63034;SDS011;59750;53.356;-1.458;2022-08-11T17:40:25;1.70;;;1.25;;
63034;SDS011;59750;53.356;-1.458;2022-08-11T17:42:55;1.35;;;1.17;;
63034;SDS011;59750;53.356;-1.458;2022-08-11T17:45:42;2.08;;;1.10;;
63034;SDS011;59750;53.356;-1.458;2022-08-11T17:48:31;2.10;;;1.42;;
63034;SDS011;59750;53.356;-1.458;2022-08-11T17:51:03;1.60;;;1.10;;
63034;SDS011;59750;53.356;-1.458;2022-08-11T17:53:36;1.30;;;1.10;;
63034;SDS011;59750;53.356;-1.458;2022-08-11T17:56:26;3.90;;;1.40;;
63034;SDS011;59750;53.356;-1.458;2022-08-11T17:59:14;2.60;;;1.05;;
63034;SDS011;59750;53.356;-1.458;2022-08-11T18:02:01;5.28;;;1.40;;
63034;SDS011;59750;53.356;-1.458;2022-08-11T18:04:49;3.28;;;1.35;;
63034;SDS011;59750;53.356;-1.458;2022-08-11T18:07:17;2.70;;;1.30;;
63034;SDS011;59750;53.356;-1.458;2022-08-11T18:10:05;3.05;;;1.15;;
63034;SDS011;59750;53.356;-1.458;2022-08-11T18:12:52;2.78;;;1.20;;
63034;SDS011;59750;53.356;-1.458;2022-08-11T18:15:41;2.30;;;1.30;;
63034;SDS011;59750;53.356;-1.458;2022-08-11T18:18:26;1.90;;;1.20;;
63034;SDS011;59750;53.356;-1.458;2022-08-11T18:21:13;3.33;;;1.67;;
63034;SDS011;59750;53.356;-1.458;2022-08-11T18:24:02;1.45;;;1.10;;
63034;SDS011;59750;53.356;-1.458;2022-08-11T18:26:51;2.78;;;1.42;;
63034;SDS011;59750;53.356;-1.458;2022-08-11T18:29:44;2.15;;;1.20;;
63034;SDS011;59750;53.356;-1.458;2022-08-11T18:35:19;2.25;;;0.95;;
63034;SDS011;59750;53.356;-1.458;2022-08-11T18:38:05;1.13;;;0.95;;
63034;SDS011;59750;53.356;-1.458;2022-08-11T18:40:54;1.40;;;0.95;;
63034;SDS011;59750;53.356;-1.458;2022-08-11T18:43:42;1.95;;;1.15;;
63034;SDS011;59750;53.356;-1.458;2022-08-11T18:46:36;2.03;;;1.15;;
63034;SDS011;59750;53.356;-1.458;2022-08-11T18:49:25;5.03;;;1.25;;
63034;SDS011;59750;53.356;-1.458;2022-08-11T18:52:13;1.50;;;0.98;;
63034;SDS011;59750;53.356;-1.458;2022-08-11T18:55:00;1.60;;;1.10;;
63034;SDS011;59750;53.356;-1.458;2022-08-11T18:57:47;2.88;;;1.30;;
63034;SDS011;59750;53.356;-1.458;2022-08-11T19:00:33;2.42;;;1.27;;
63034;SDS011;59750;53.356;-1.458;2022-08-11T19:03:20;1.40;;;1.10;;
63034;SDS011;59750;53.356;-1.458;2022-08-11T19:06:07;1.83;;;1.35;;
63034;SDS011;59750;53.356;-1.458;2022-08-11T19:08:56;3.95;;;1.50;;
63034;SDS011;59750;53.356;-1.458;2022-08-11T19:11:43;3.17;;;1.80;;
63034;SDS011;59750;53.356;-1.458;2022-08-11T19:14:29;2.92;;;1.77;;
63034;SDS011;59750;53.356;-1.458;2022-08-11T19:17:15;3.55;;;1.80;;
63034;SDS011;59750;53.356;-1.458;2022-08-11T19:20:02;2.28;;;1.50;;
63034;SDS011;59750;53.356;-1.458;2022-08-11T19:22:50;6.35;;;1.92;;
63034;SDS011;59750;53.356;-1.458;2022-08-11T19:25:37;3.28;;;1.60;;
63034;SDS011;59750;53.356;-1.458;2022-08-11T19:28:24;3.75;;;1.58;;
63034;SDS011;59750;53.356;-1.458;2022-08-11T19:31:10;3.10;;;1.45;;
63034;SDS011;59750;53.356;-1.458;2022-08-11T19:33:56;1.60;;;1.50;;
63034;SDS011;59750;53.356;-1.458;2022-08-11T19:36:43;4.20;;;1.70;;
63034;SDS011;59750;53.356;-1.458;2022-08-11T19:39:30;4.35;;;1.67;;
63034;SDS011;59750;53.356;-1.458;2022-08-11T19:42:17;2.38;;;1.85;;
63034;SDS011;59750;53.356;-1.458;2022-08-11T19:45:02;2.97;;;1.70;;
63034;SDS011;59750;53.356;-1.458;2022-08-11T19:47:49;2.47;;;1.58;;
63034;SDS011;59750;53.356;-1.458;2022-08-11T19:50:35;2.70;;;1.85;;
63034;SDS011;59750;53.356;-1.458;2022-08-11T19:53:24;5.00;;;1.90;;
63034;SDS011;59750;53.356;-1.458;2022-08-11T19:56:10;2.03;;;1.77;;